Time;durP1;ratioP1;P1;durP2;ratioP2;P2;SDS_P1;SDS_P2;PMS_P1;PMS_P2;Temp;Humidity;BMP_temperature;BMP_pressure;BME280_temperature;BME280_humidity;BME280_pressure;Samples;Min_cycle;Max_cycle;Signal;HPM_P1;HPM_P2
2021/04/27 00:00:10;;;;;;;15.30;13.73;;;7.20;98.10;;;;;;6253040;28;20802;-62
2021/04/27 00:03:13;;;;;;;17.63;14.67;;;7.20;98.10;;;;;;6252236;28;20490;-62
2021/04/27 00:06:15;;;;;;;16.40;14.90;;;7.10;98.10;;;;;;6252754;28;20472;-62
2021/04/27 00:09:18;;;;;;;16.33;14.63;;;7.10;98.20;;;;;;6252497;28;20536;-62
2021/04/27 00:12:20;;;;;;;18.93;16.80;;;7.00;98.20;;;;;;6252708;28;20484;-61
2021/04/27 00:15:26;;;;;;;17.57;15.57;;;7.00;98.60;;;;;;6252180;28;20486;-62
2021/04/27 00:18:28;;;;;;;17.77;15.83;;;6.90;98.70;;;;;;6252409;28;20471;-62
2021/04/27 00:21:30;;;;;;;15.30;13.93;;;6.90;99.40;;;;;;6252188;28;20498;-62
2021/04/27 00:24:32;;;;;;;16.80;15.23;;;6.90;99.20;;;;;;6252430;28;20497;-62
2021/04/27 00:27:35;;;;;;;17.73;15.80;;;6.90;99.30;;;;;;6252196;28;20471;-62
2021/04/27 00:30:39;;;;;;;18.47;15.00;;;7.00;99.30;;;;;;6251812;28;20821;-62
2021/04/27 00:33:41;;;;;;;16.73;15.10;;;7.00;99.30;;;;;;6251879;28;20963;-62
2021/04/27 00:36:43;;;;;;;18.43;16.63;;;7.10;99.20;;;;;;6251540;28;20473;-62
2021/04/27 00:39:45;;;;;;;17.37;15.67;;;7.10;99.10;;;;;;6251732;28;20838;-62
2021/04/27 00:42:48;;;;;;;18.47;16.67;;;7.10;99.10;;;;;;6251048;28;20791;-62
2021/04/27 00:45:51;;;;;;;18.50;16.07;;;7.00;99.10;;;;;;6251637;28;20481;-62
2021/04/27 00:48:54;;;;;;;17.33;15.53;;;7.00;99.10;;;;;;6242616;28;20486;-62
2021/04/27 00:51:57;;;;;;;18.23;16.17;;;6.90;99.50;;;;;;6251561;28;20467;-62
2021/04/27 00:55:00;;;;;;;18.50;16.50;;;6.90;99.20;;;;;;6251115;28;20967;-62
2021/04/27 00:58:02;;;;;;;17.87;16.17;;;6.90;99.20;;;;;;6251746;28;20479;-62
2021/04/27 01:01:06;;;;;;;16.73;15.10;;;6.80;99.10;;;;;;6251076;28;20489;-62
2021/04/27 01:04:09;;;;;;;17.90;16.10;;;6.80;99.20;;;;;;6250821;28;20466;-62
2021/04/27 01:07:12;;;;;;;18.67;16.67;;;6.80;99.10;;;;;;6251313;28;20802;-63
2021/04/27 01:10:18;;;;;;;21.23;16.37;;;6.80;99.20;;;;;;6250697;28;20467;-62
2021/04/27 01:13:25;;;;;;;19.27;17.17;;;6.70;99.30;;;;;;6250921;28;20490;-62
2021/04/27 01:16:30;;;;;;;18.40;16.50;;;6.60;99.40;;;;;;6250595;28;20471;-62
2021/04/27 01:19:38;;;;;;;20.87;18.00;;;6.60;99.50;;;;;;6250599;28;21008;-63
2021/04/27 01:22:59;;;;;;;20.10;17.80;;;6.50;99.60;;;;;;6250572;28;20475;-62
2021/04/27 01:26:05;;;;;;;18.13;16.20;;;6.50;99.70;;;;;;6250491;28;20474;-62
2021/04/27 01:29:12;;;;;;;19.50;16.60;;;6.50;99.70;;;;;;6250170;28;20963;-61
2021/04/27 01:32:15;;;;;;;19.20;17.10;;;6.40;99.60;;;;;;6250610;28;20490;-61
2021/04/27 01:35:18;;;;;;;19.30;16.40;;;6.40;99.70;;;;;;6250166;28;20632;-61
2021/04/27 01:38:22;;;;;;;19.20;17.17;;;6.40;99.60;;;;;;6250357;28;20482;-61
2021/04/27 01:41:24;;;;;;;19.13;17.03;;;6.40;99.70;;;;;;6249888;28;20824;-62
2021/04/27 01:44:30;;;;;;;20.60;18.40;;;6.30;99.60;;;;;;6250401;28;20475;-62
2021/04/27 01:47:33;;;;;;;19.33;17.47;;;6.30;99.60;;;;;;6250013;28;20475;-62
2021/04/27 01:50:36;;;;;;;20.70;18.67;;;6.20;99.80;;;;;;6250156;28;20451;-62
2021/04/27 01:53:39;;;;;;;23.30;19.17;;;6.20;99.90;;;;;;6249707;28;20458;-62
2021/04/27 01:56:41;;;;;;;20.37;18.30;;;6.10;99.90;;;;;;6249543;28;20482;-62
2021/04/27 01:59:44;;;;;;;22.10;19.90;;;6.10;99.90;;;;;;6249238;28;20447;-63
2021/04/27 02:02:48;;;;;;;23.90;21.50;;;6.10;99.90;;;;;;6249190;28;20809;-63
2021/04/27 02:05:50;;;;;;;20.40;18.30;;;6.00;99.90;;;;;;6249638;28;20450;-63
2021/04/27 02:08:59;;;;;;;20.27;18.20;;;6.10;99.90;;;;;;6249467;28;20522;-61
2021/04/27 02:12:02;;;;;;;20.53;18.33;;;6.10;99.90;;;;;;6249792;28;20463;-62
2021/04/27 02:15:08;;;;;;;20.00;17.73;;;6.10;99.90;;;;;;6248896;28;20470;-62
2021/04/27 02:18:13;;;;;;;20.50;17.77;;;6.10;99.90;;;;;;6250213;28;20477;-62
2021/04/27 02:21:18;;;;;;;21.00;18.80;;;6.00;99.90;;;;;;6249222;28;20494;-62
2021/04/27 02:24:21;;;;;;;22.43;20.00;;;6.00;99.90;;;;;;6249694;28;20467;-62
2021/04/27 02:27:24;;;;;;;20.47;18.57;;;5.90;99.90;;;;;;6249217;28;20489;-62
2021/04/27 02:30:27;;;;;;;21.17;19.03;;;5.90;99.90;;;;;;6249419;28;20892;-61
2021/04/27 02:33:30;;;;;;;22.80;19.60;;;5.90;99.90;;;;;;6249321;28;20558;-62
2021/04/27 02:36:36;;;;;;;23.03;19.23;;;5.80;99.90;;;;;;6249142;28;20471;-62
2021/04/27 02:39:38;;;;;;;20.20;17.97;;;5.90;99.90;;;;;;6249141;28;20502;-62
2021/04/27 02:42:41;;;;;;;19.83;17.83;;;5.90;99.90;;;;;;6249428;28;20471;-62
2021/04/27 02:45:44;;;;;;;20.93;17.17;;;5.90;99.90;;;;;;6249001;28;20471;-62
2021/04/27 02:48:51;;;;;;;21.87;18.73;;;5.80;99.90;;;;;;6249326;28;20478;-61
2021/04/27 02:51:54;;;;;;;22.73;20.33;;;5.80;99.90;;;;;;6249202;28;20487;-60
2021/04/27 02:54:56;;;;;;;22.80;18.80;;;5.80;99.90;;;;;;6249090;28;20489;-62
2021/04/27 02:57:58;;;;;;;22.97;19.80;;;5.80;99.90;;;;;;6249172;28;20467;-62
2021/04/27 03:01:02;;;;;;;23.07;19.80;;;5.80;99.90;;;;;;6249056;28;20504;-61
2021/04/27 03:04:05;;;;;;;21.63;19.00;;;5.80;99.90;;;;;;6248535;28;20813;-61
2021/04/27 03:07:07;;;;;;;22.53;19.97;;;5.80;99.90;;;;;;6248828;28;20951;-62
2021/04/27 03:10:10;;;;;;;22.00;19.27;;;5.80;99.90;;;;;;6252578;28;20486;-62
2021/04/27 03:13:12;;;;;;;24.73;19.40;;;5.80;99.90;;;;;;6253335;28;20593;-62
2021/04/27 03:16:15;;;;;;;22.53;20.10;;;5.70;99.90;;;;;;6253923;28;20490;-62
2021/04/27 03:19:17;;;;;;;21.63;18.90;;;5.70;99.90;;;;;;6253261;28;20471;-62
2021/04/27 03:22:19;;;;;;;23.27;20.90;;;5.70;99.90;;;;;;6253709;28;20483;-62
2021/04/27 03:25:22;;;;;;;20.90;18.77;;;5.60;99.90;;;;;;6253669;28;20482;-62
2021/04/27 03:28:24;;;;;;;26.20;19.67;;;5.50;99.90;;;;;;6253456;28;20482;-62
2021/04/27 03:31:27;;;;;;;22.47;20.07;;;5.50;99.90;;;;;;6253284;28;20487;-62
2021/04/27 03:34:29;;;;;;;22.17;19.77;;;5.40;99.90;;;;;;6252802;28;20948;-62
2021/04/27 03:37:36;;;;;;;22.83;20.43;;;5.30;99.90;;;;;;6253251;28;20978;-62
2021/04/27 03:40:39;;;;;;;21.73;19.53;;;5.30;99.90;;;;;;6253094;28;20474;-63
2021/04/27 03:43:41;;;;;;;21.33;19.03;;;5.30;99.90;;;;;;6253249;28;20505;-63
2021/04/27 03:46:44;;;;;;;24.43;20.23;;;5.40;99.90;;;;;;6252687;28;20474;-62
2021/04/27 03:49:46;;;;;;;23.50;20.47;;;5.30;99.90;;;;;;6252907;28;20803;-62
2021/04/27 03:52:48;;;;;;;21.63;19.33;;;5.40;99.90;;;;;;6252576;28;20509;-63
2021/04/27 03:55:54;;;;;;;24.53;20.00;;;5.40;99.90;;;;;;6253074;28;20494;-62
2021/04/27 03:58:56;;;;;;;23.87;20.50;;;5.40;99.90;;;;;;6252538;28;20467;-63
2021/04/27 04:02:00;;;;;;;23.93;21.37;;;5.20;99.90;;;;;;6243641;28;20550;-62
2021/04/27 04:05:02;;;;;;;29.60;20.10;;;5.20;99.90;;;;;;6252674;28;20479;-62
2021/04/27 04:08:05;;;;;;;25.90;21.47;;;5.20;99.90;;;;;;6252439;28;20514;-62
2021/04/27 04:11:07;;;;;;;25.37;22.50;;;5.20;99.90;;;;;;6252686;28;20471;-62
2021/04/27 04:14:10;;;;;;;24.63;21.60;;;5.30;99.90;;;;;;6252297;28;20482;-62
2021/04/27 04:17:13;;;;;;;26.43;20.77;;;5.50;99.90;;;;;;6252367;28;20612;-61
2021/04/27 04:20:17;;;;;;;27.57;20.57;;;5.60;99.90;;;;;;6251291;28;20566;-61
2021/04/27 04:23:21;;;;;;;26.33;20.87;;;5.80;99.90;;;;;;6252123;28;20990;-61
2021/04/27 04:26:24;;;;;;;27.23;20.80;;;5.80;99.90;;;;;;6251669;28;20478;-62
2021/04/27 04:29:26;;;;;;;24.50;21.40;;;5.90;99.90;;;;;;6251998;28;20475;-61
2021/04/27 04:32:29;;;;;;;22.80;20.40;;;6.00;99.90;;;;;;6251641;28;20481;-62
2021/04/27 04:35:33;;;;;;;25.30;20.93;;;6.10;99.90;;;;;;6251777;28;20570;-62
2021/04/27 04:38:37;;;;;;;27.70;23.30;;;6.20;99.90;;;;;;6251251;28;20948;-63
2021/04/27 04:41:40;;;;;;;26.10;22.23;;;6.30;99.90;;;;;;6251662;28;20495;-63
2021/04/27 04:44:42;;;;;;;24.43;18.90;;;6.40;99.90;;;;;;6251295;28;20466;-63
2021/04/27 04:47:46;;;;;;;22.50;20.10;;;6.50;99.90;;;;;;6251714;28;20450;-63
2021/04/27 04:50:48;;;;;;;22.43;20.13;;;6.60;99.90;;;;;;6251395;28;20728;-63
2021/04/27 04:53:50;;;;;;;24.20;21.47;;;6.70;99.90;;;;;;6251023;28;20463;-62
2021/04/27 04:56:52;;;;;;;22.97;20.57;;;6.90;99.70;;;;;;6251994;28;20495;-62
2021/04/27 04:59:55;;;;;;;25.13;20.70;;;7.00;99.50;;;;;;6251196;28;20942;-62
2021/04/27 05:02:58;;;;;;;25.83;21.10;;;7.00;99.30;;;;;;6246298;28;20561;-63
2021/04/27 05:06:00;;;;;;;24.00;21.07;;;7.10;99.20;;;;;;6249317;28;20560;-62
2021/04/27 05:09:04;;;;;;;22.87;20.57;;;7.20;99.10;;;;;;6249320;28;20479;-61
2021/04/27 05:12:07;;;;;;;22.43;20.03;;;7.30;98.70;;;;;;6249607;28;20542;-61
2021/04/27 05:15:10;;;;;;;24.27;21.50;;;7.30;98.70;;;;;;6249188;28;20840;-62
2021/04/27 05:18:15;;;;;;;24.10;21.53;;;7.40;98.70;;;;;;6249861;28;20521;-62
2021/04/27 05:21:18;;;;;;;24.87;21.53;;;7.40;98.70;;;;;;6250162;28;20463;-63
2021/04/27 05:24:21;;;;;;;28.17;20.97;;;7.30;98.50;;;;;;6250339;28;20966;-63
2021/04/27 05:27:24;;;;;;;22.93;20.60;;;7.30;99.10;;;;;;6250447;28;20545;-62
2021/04/27 05:30:26;;;;;;;23.40;21.00;;;7.40;99.40;;;;;;6248910;28;20475;-63
2021/04/27 05:33:29;;;;;;;27.33;21.93;;;7.40;99.50;;;;;;6247315;28;20497;-63
2021/04/27 05:36:31;;;;;;;24.73;21.10;;;7.40;99.40;;;;;;6248508;28;20467;-63
2021/04/27 05:39:34;;;;;;;22.70;20.40;;;7.40;99.50;;;;;;6248110;28;20485;-63
2021/04/27 05:42:36;;;;;;;26.13;22.63;;;7.40;99.40;;;;;;6248207;28;20486;-63
2021/04/27 05:45:39;;;;;;;25.83;22.30;;;7.50;99.40;;;;;;6248864;28;20802;-62
2021/04/27 05:48:42;;;;;;;25.30;22.53;;;7.50;99.40;;;;;;6250025;28;20467;-63
2021/04/27 05:51:44;;;;;;;24.47;21.77;;;7.70;99.30;;;;;;6249949;28;20943;-63
2021/04/27 05:54:46;;;;;;;24.93;22.20;;;7.70;98.80;;;;;;6250153;28;20479;-62
2021/04/27 05:57:48;;;;;;;28.40;24.63;;;7.80;99.10;;;;;;6250236;28;20464;-63
2021/04/27 06:00:50;;;;;;;25.10;21.43;;;7.80;99.10;;;;;;6249991;28;20493;-63
2021/04/27 06:04:08;;;;;;;27.70;24.20;;;7.90;99.10;;;;;;6249673;28;20846;-63
2021/04/27 06:07:11;;;;;;;32.00;23.03;;;7.90;99.00;;;;;;6249820;28;20554;-62
2021/04/27 06:10:13;;;;;;;29.07;23.10;;;7.90;99.10;;;;;;6249576;28;20967;-62
2021/04/27 06:13:15;;;;;;;25.43;22.70;;;7.90;99.00;;;;;;6249208;28;20822;-62
2021/04/27 06:16:18;;;;;;;27.53;22.90;;;7.90;99.10;;;;;;6249359;28;20498;-62
2021/04/27 06:19:23;;;;;;;25.10;22.50;;;8.00;99.00;;;;;;6249432;28;20482;-62
2021/04/27 06:22:26;;;;;;;31.10;25.47;;;7.90;99.10;;;;;;6249615;28;20487;-62
2021/04/27 06:25:28;;;;;;;27.77;24.77;;;7.90;99.20;;;;;;6249536;28;20474;-62
2021/04/27 06:28:30;;;;;;;31.90;23.50;;;7.80;99.30;;;;;;6249209;28;20820;-62
2021/04/27 06:31:32;;;;;;;27.60;24.73;;;7.80;99.50;;;;;;6248743;28;20966;-62
2021/04/27 06:34:35;;;;;;;28.40;24.53;;;7.90;99.70;;;;;;6249027;28;20471;-62
2021/04/27 06:37:38;;;;;;;39.37;34.47;;;7.70;99.40;;;;;;6248635;28;20479;-62
2021/04/27 06:40:40;;;;;;;29.87;24.27;;;7.80;99.90;;;;;;6245874;28;20482;-62
2021/04/27 06:43:42;;;;;;;30.23;25.50;;;7.80;99.90;;;;;;6251823;28;20478;-62
2021/04/27 06:46:45;;;;;;;30.67;27.40;;;7.90;99.70;;;;;;6250620;28;20525;-63
2021/04/27 06:49:48;;;;;;;32.03;29.00;;;8.00;99.70;;;;;;6244907;28;20470;-61
2021/04/27 06:52:50;;;;;;;26.43;23.60;;;8.00;99.60;;;;;;6236230;28;20755;-62
2021/04/27 06:55:52;;;;;;;28.40;25.20;;;8.00;99.70;;;;;;6236713;28;20483;-62
2021/04/27 06:58:55;;;;;;;41.27;32.77;;;8.00;99.80;;;;;;6253603;28;20818;-62
2021/04/27 07:01:58;;;;;;;32.37;27.77;;;8.00;99.90;;;;;;6253550;28;20550;-62
2021/04/27 07:05:02;;;;;;;40.90;30.67;;;8.10;99.80;;;;;;6253060;28;20455;-63
2021/04/27 07:08:05;;;;;;;44.70;31.57;;;8.10;99.60;;;;;;6252735;28;20963;-62
2021/04/27 07:11:08;;;;;;;67.30;46.30;;;8.10;99.70;;;;;;6250707;28;20471;-61
2021/04/27 07:14:10;;;;;;;50.17;39.07;;;8.10;99.80;;;;;;6243809;28;20489;-62
2021/04/27 07:17:13;;;;;;;43.30;31.83;;;8.10;99.90;;;;;;6253013;28;20463;-62
2021/04/27 07:20:16;;;;;;;29.60;24.57;;;8.10;99.90;;;;;;6252588;28;20475;-62
2021/04/27 07:23:19;;;;;;;26.73;22.17;;;8.10;99.80;;;;;;6252789;28;20467;-62
2021/04/27 07:26:22;;;;;;;26.33;23.63;;;8.00;99.80;;;;;;6252874;28;20619;-64
2021/04/27 07:29:24;;;;;;;152.20;103.00;;;8.10;99.90;;;;;;6252922;28;20851;-64
2021/04/27 07:32:26;;;;;;;32.87;28.93;;;8.10;99.90;;;;;;6253208;28;20958;-65
2021/04/27 07:35:29;;;;;;;27.10;22.27;;;8.20;99.90;;;;;;6252477;28;20475;-64
2021/04/27 07:38:32;;;;;;;24.40;21.80;;;8.30;99.80;;;;;;6252890;28;20951;-64
2021/04/27 07:41:34;;;;;;;26.60;21.90;;;8.40;99.70;;;;;;6252608;28;20939;-65
2021/04/27 07:44:36;;;;;;;25.17;22.07;;;8.40;99.50;;;;;;6252488;28;20495;-64
2021/04/27 07:47:40;;;;;;;23.50;19.83;;;8.50;99.30;;;;;;6252462;28;20459;-63
2021/04/27 07:50:43;;;;;;;23.30;19.30;;;8.50;99.20;;;;;;6252514;28;20515;-63
2021/04/27 07:53:46;;;;;;;23.20;19.33;;;8.50;99.10;;;;;;6252093;28;20468;-67
2021/04/27 07:56:48;;;;;;;20.33;17.50;;;8.60;98.70;;;;;;6238135;28;20477;-66
2021/04/27 07:59:50;;;;;;;18.27;16.47;;;8.80;98.40;;;;;;6252306;28;20526;-65
2021/04/27 08:02:53;;;;;;;19.17;16.87;;;8.80;97.40;;;;;;6251924;28;20919;-67
2021/04/27 08:05:56;;;;;;;15.80;14.30;;;8.80;97.00;;;;;;6252360;28;20451;-67
2021/04/27 08:08:59;;;;;;;17.00;15.37;;;8.90;96.70;;;;;;6252582;28;20474;-69
2021/04/27 08:12:05;;;;;;;17.87;16.10;;;9.00;96.50;;;;;;6253019;28;20467;-69
2021/04/27 08:15:09;;;;;;;19.23;17.13;;;9.00;96.10;;;;;;6247871;28;20493;-66
2021/04/27 08:18:11;;;;;;;16.97;15.17;;;9.00;96.00;;;;;;6252158;28;20797;-66
2021/04/27 08:21:15;;;;;;;15.37;13.77;;;9.00;96.00;;;;;;6251688;28;20479;-69
2021/04/27 08:24:17;;;;;;;17.63;15.83;;;9.10;95.90;;;;;;6251935;28;20556;-63
2021/04/27 08:27:36;;;;;;;17.77;15.97;;;9.00;95.70;;;;;;6251933;28;20479;-65
2021/04/27 08:30:38;;;;;;;17.07;15.37;;;9.10;95.80;;;;;;6251815;28;20482;-63
2021/04/27 08:33:41;;;;;;;18.30;16.33;;;9.20;96.50;;;;;;6251129;28;20568;-64
2021/04/27 08:36:44;;;;;;;19.00;14.43;;;9.20;96.10;;;;;;6251413;28;20549;-66
2021/04/27 08:39:46;;;;;;;16.03;14.20;;;9.20;95.80;;;;;;6250594;28;20467;-66
2021/04/27 08:42:52;;;;;;;15.87;14.37;;;9.30;95.40;;;;;;6250842;28;20483;-66
2021/04/27 08:45:55;;;;;;;18.20;16.30;;;9.30;95.40;;;;;;6250806;28;20672;-66
2021/04/27 08:48:57;;;;;;;17.97;15.97;;;9.30;95.50;;;;;;6251053;28;20485;-67
2021/04/27 08:52:01;;;;;;;17.93;16.00;;;9.20;95.70;;;;;;6251003;28;20485;-65
2021/04/27 08:55:09;;;;;;;17.87;16.03;;;9.20;96.10;;;;;;6250977;28;20471;-63
2021/04/27 08:58:13;;;;;;;17.90;16.10;;;9.20;96.40;;;;;;6251273;28;20553;-65
2021/04/27 09:01:15;;;;;;;17.60;15.70;;;9.10;96.60;;;;;;6251131;28;20471;-68
2021/04/27 09:04:40;;;;;;;15.43;13.87;;;9.10;96.70;;;;;;6250806;28;20475;-63
2021/04/27 09:07:43;;;;;;;22.40;17.87;;;9.20;96.80;;;;;;6250881;28;20471;-67
2021/04/27 09:10:47;;;;;;;18.33;16.07;;;9.30;96.70;;;;;;6250751;28;20824;-68
2021/04/27 09:14:11;;;;;;;20.33;17.30;;;9.30;96.60;;;;;;6250302;28;20471;-67
2021/04/27 09:17:13;;;;;;;18.10;16.27;;;9.20;96.80;;;;;;6249752;28;20475;-67
2021/04/27 09:20:15;;;;;;;19.63;16.87;;;9.20;96.80;;;;;;6250671;28;20479;-68
2021/04/27 09:23:19;;;;;;;18.60;16.80;;;9.30;96.80;;;;;;6250368;28;20561;-71
2021/04/27 09:26:23;;;;;;;19.70;17.60;;;9.30;96.80;;;;;;6250339;28;20471;-70
2021/04/27 09:29:30;;;;;;;21.03;17.40;;;9.30;97.00;;;;;;6250318;28;20482;-68
2021/04/27 09:32:34;;;;;;;18.87;16.93;;;9.40;97.10;;;;;;6250220;28;20485;-67
2021/04/27 09:35:40;;;;;;;19.17;17.07;;;9.30;96.80;;;;;;6250424;28;20490;-62
2021/04/27 09:38:43;;;;;;;22.97;19.93;;;9.20;96.80;;;;;;6224843;28;20476;-63
2021/04/27 09:42:00;;;;;;;19.53;16.80;;;9.20;97.40;;;;;;6225567;28;20440;-64
2021/04/27 09:45:07;;;;;;;28.00;19.93;;;9.20;97.80;;;;;;6223884;28;20487;-64
2021/04/27 09:48:11;;;;;;;22.70;19.00;;;9.20;97.70;;;;;;6224091;28;20468;-63
2021/04/27 09:51:24;;;;;;;19.00;17.13;;;9.20;97.40;;;;;;6224850;28;20779;-64
2021/04/27 09:55:08;;;;;;;20.43;18.20;;;9.30;98.00;;;;;;6233335;28;20829;-64
2021/04/27 09:58:11;;;;;;;20.67;18.43;;;9.30;98.10;;;;;;6249763;28;20491;-63
2021/04/27 10:01:20;;;;;;;22.40;17.97;;;9.30;98.30;;;;;;6249709;28;20459;-63
2021/04/27 10:04:26;;;;;;;20.20;18.00;;;9.30;98.10;;;;;;6249656;28;20471;-64
2021/04/27 10:07:35;;;;;;;20.30;18.27;;;9.40;98.20;;;;;;6249649;28;20550;-64
2021/04/27 10:10:38;;;;;;;19.70;17.70;;;9.40;98.60;;;;;;6249679;28;20486;-63
2021/04/27 10:13:41;;;;;;;24.60;19.00;;;9.50;98.20;;;;;;6249373;28;20963;-63
2021/04/27 10:16:44;;;;;;;22.83;18.23;;;9.50;97.70;;;;;;6249137;28;20996;-63
2021/04/27 10:19:47;;;;;;;21.47;17.87;;;9.60;97.90;;;;;;6248809;28;20478;-63
2021/04/27 10:22:51;;;;;;;22.93;19.10;;;9.70;98.00;;;;;;6248912;28;20479;-67
2021/04/27 10:25:54;;;;;;;21.20;18.93;;;9.80;98.30;;;;;;6235204;28;20509;-67
2021/04/27 10:28:58;;;;;;;21.57;18.47;;;9.80;98.10;;;;;;6247954;28;20521;-66
2021/04/27 10:32:20;;;;;;;21.53;19.23;;;9.90;97.90;;;;;;6248661;28;20974;-64
2021/04/27 10:35:22;;;;;;;24.40;19.20;;;9.90;98.40;;;;;;6248910;28;20624;-62
2021/04/27 10:38:24;;;;;;;20.53;18.33;;;10.00;97.40;;;;;;6249222;28;20604;-62
2021/04/27 10:41:50;;;;;;;19.70;17.63;;;10.00;97.50;;;;;;6249922;28;20467;-67
2021/04/27 10:44:58;;;;;;;20.80;18.60;;;10.00;97.10;;;;;;6245977;28;20479;-67
2021/04/27 10:48:04;;;;;;;21.50;19.20;;;10.00;97.40;;;;;;6248474;28;20471;-67
2021/04/27 10:51:36;;;;;;;21.43;18.23;;;9.90;98.80;;;;;;6249112;28;20478;-67
2021/04/27 10:54:39;;;;;;;21.90;19.63;;;10.00;98.30;;;;;;6248954;28;20475;-67
2021/04/27 10:58:04;;;;;;;22.90;19.37;;;10.20;98.10;;;;;;6230434;28;20518;-67
2021/04/27 11:01:28;;;;;;;20.83;18.10;;;10.30;97.70;;;;;;6248203;28;20823;-66
2021/04/27 11:04:33;;;;;;;20.80;18.80;;;10.40;97.40;;;;;;6247365;28;20477;-67
2021/04/27 11:07:37;;;;;;;20.43;18.50;;;10.40;97.70;;;;;;6248357;28;20462;-66
2021/04/27 11:10:44;;;;;;;19.17;17.37;;;10.50;97.10;;;;;;6247331;28;20925;-64
2021/04/27 11:13:47;;;;;;;19.60;17.60;;;10.60;97.20;;;;;;6246226;28;20482;-67
2021/04/27 11:16:53;;;;;;;20.97;18.77;;;10.50;97.10;;;;;;6245302;28;20782;-64
2021/04/27 11:19:56;;;;;;;20.70;18.07;;;10.60;97.50;;;;;;6246409;28;20479;-68
2021/04/27 11:22:59;;;;;;;21.50;19.13;;;10.50;96.90;;;;;;6245580;28;20483;-65
2021/04/27 11:26:24;;;;;;;20.67;18.40;;;10.60;97.40;;;;;;6246194;28;20894;-63
2021/04/27 11:29:29;;;;;;;20.70;17.63;;;10.60;97.40;;;;;;6239312;28;20475;-68
2021/04/27 11:32:33;;;;;;;19.80;17.80;;;10.60;97.60;;;;;;6253074;28;20586;-68
2021/04/27 11:35:40;;;;;;;23.83;19.97;;;10.60;97.90;;;;;;6252782;28;20974;-66
2021/04/27 11:38:49;;;;;;;20.73;18.60;;;10.60;97.90;;;;;;6262024;28;20473;-64
2021/04/27 11:41:54;;;;;;;21.80;16.80;;;10.60;98.00;;;;;;6277987;28;20438;-64
2021/04/27 11:45:01;;;;;;;21.53;19.17;;;10.60;97.50;;;;;;6278044;28;20462;-66
2021/04/27 11:48:04;;;;;;;20.90;18.77;;;10.60;97.40;;;;;;6269441;28;20494;-68
2021/04/27 11:51:06;;;;;;;21.17;18.07;;;10.60;97.70;;;;;;6253210;28;20469;-67
2021/04/27 11:54:09;;;;;;;19.33;17.43;;;10.40;98.10;;;;;;6250563;28;20470;-64
2021/04/27 11:57:15;;;;;;;18.90;17.10;;;10.30;98.10;;;;;;6252347;28;20475;-65
2021/04/27 12:00:20;;;;;;;21.93;18.40;;;10.20;98.30;;;;;;6246830;28;20471;-66
2021/04/27 12:03:26;;;;;;;21.03;18.73;;;10.20;98.50;;;;;;6249966;28;20996;-64
2021/04/27 12:06:31;;;;;;;20.47;18.43;;;10.20;98.90;;;;;;6249954;28;20489;-59
2021/04/27 12:09:41;;;;;;;21.43;19.17;;;10.30;99.00;;;;;;6250282;28;20485;-66
2021/04/27 12:12:48;;;;;;;20.93;18.70;;;10.30;98.70;;;;;;6249460;28;20487;-64
2021/04/27 12:16:10;;;;;;;22.10;18.77;;;10.30;98.70;;;;;;6250299;28;20479;-59
2021/04/27 12:19:14;;;;;;;20.23;18.30;;;10.30;98.70;;;;;;6249693;28;20568;-65
2021/04/27 12:22:16;;;;;;;22.10;19.80;;;10.10;99.90;;;;;;6249704;28;20510;-64
2021/04/27 12:25:24;;;;;;;23.13;19.80;;;10.10;99.80;;;;;;6249018;28;20471;-60
2021/04/27 12:28:27;;;;;;;21.67;18.87;;;10.10;99.90;;;;;;6247074;28;20470;-68
2021/04/27 12:31:31;;;;;;;24.83;22.27;;;10.20;99.90;;;;;;6245370;28;20475;-64
2021/04/27 12:34:34;;;;;;;22.00;19.57;;;10.30;99.90;;;;;;6249652;28;20812;-59
2021/04/27 12:37:37;;;;;;;21.77;19.43;;;10.50;99.70;;;;;;6248603;28;20471;-59
2021/04/27 12:40:42;;;;;;;21.80;19.60;;;10.50;99.30;;;;;;6224723;28;20988;-60
2021/04/27 12:43:44;;;;;;;21.00;18.80;;;10.50;99.50;;;;;;6225024;28;20479;-60
2021/04/27 12:46:50;;;;;;;20.47;18.43;;;10.50;99.40;;;;;;6224940;28;20482;-59
2021/04/27 12:50:05;;;;;;;20.37;18.20;;;10.50;99.40;;;;;;6247765;28;20509;-58
2021/04/27 12:53:07;;;;;;;21.30;19.00;;;10.40;99.20;;;;;;6249388;28;20472;-59
2021/04/27 12:56:11;;;;;;;21.13;18.93;;;10.30;99.30;;;;;;6249208;28;20486;-60
2021/04/27 12:59:17;;;;;;;20.80;18.60;;;10.20;99.70;;;;;;6248305;28;20475;-64
2021/04/27 13:02:21;;;;;;;21.83;19.50;;;10.10;99.90;;;;;;6248526;28;20475;-63
2021/04/27 13:05:26;;;;;;;20.53;18.47;;;10.20;99.90;;;;;;6247959;28;20806;-64
2021/04/27 13:08:29;;;;;;;21.97;19.77;;;10.20;99.90;;;;;;6248151;28;20554;-63
2021/04/27 13:11:32;;;;;;;21.67;19.67;;;10.20;99.90;;;;;;6247695;28;20466;-65
2021/04/27 13:14:36;;;;;;;21.33;19.30;;;10.10;99.90;;;;;;6247806;28;20498;-66
2021/04/27 13:17:41;;;;;;;23.00;18.20;;;10.20;99.90;;;;;;6247875;28;20475;-65
2021/04/27 13:20:44;;;;;;;22.97;18.60;;;10.20;99.90;;;;;;6248214;28;20916;-64
2021/04/27 13:23:47;;;;;;;21.07;18.80;;;10.20;99.90;;;;;;6247592;28;20462;-65
2021/04/27 13:27:00;;;;;;;19.37;17.60;;;10.30;99.90;;;;;;6247827;28;20776;-61
2021/04/27 13:30:08;;;;;;;20.00;17.80;;;10.30;99.90;;;;;;6248275;28;20743;-61
2021/04/27 13:33:13;;;;;;;18.57;16.77;;;10.40;99.90;;;;;;6246704;28;20486;-58
2021/04/27 13:36:19;;;;;;;19.70;16.83;;;10.40;99.70;;;;;;6247794;28;20489;-59
2021/04/27 13:39:21;;;;;;;19.13;17.13;;;10.50;99.40;;;;;;6248269;28;20478;-59
2021/04/27 13:42:23;;;;;;;21.67;18.80;;;10.50;98.70;;;;;;6247993;28;20467;-58
2021/04/27 13:45:29;;;;;;;24.00;18.83;;;10.50;98.40;;;;;;6248029;28;20463;-58
2021/04/27 13:48:34;;;;;;;21.90;17.80;;;10.50;98.60;;;;;;6248047;28;20475;-58
2021/04/27 13:51:37;;;;;;;19.67;17.67;;;10.40;98.30;;;;;;6247992;28;20467;-57
2021/04/27 13:54:39;;;;;;;19.90;17.87;;;10.40;98.40;;;;;;6247759;28;20486;-58
2021/04/27 13:57:42;;;;;;;20.30;18.17;;;10.40;98.30;;;;;;6247791;28;20477;-62
2021/04/27 14:00:45;;;;;;;20.20;18.00;;;10.30;98.10;;;;;;6248176;28;20467;-58
2021/04/27 14:03:48;;;;;;;21.83;19.63;;;10.30;97.90;;;;;;6247018;28;21005;-59
2021/04/27 14:06:50;;;;;;;24.93;20.23;;;10.30;98.20;;;;;;6247555;28;20467;-58
2021/04/27 14:09:52;;;;;;;21.57;19.00;;;10.20;98.20;;;;;;6247831;28;20551;-58
2021/04/27 14:12:56;;;;;;;21.63;17.27;;;10.30;98.40;;;;;;6246760;28;20509;-58
2021/04/27 14:15:59;;;;;;;20.57;18.00;;;10.30;98.20;;;;;;6246522;28;20495;-59
2021/04/27 14:19:03;;;;;;;21.87;19.57;;;10.30;98.30;;;;;;6247513;28;20481;-57
2021/04/27 14:22:05;;;;;;;20.80;18.53;;;10.30;98.40;;;;;;6246924;28;20780;-63
2021/04/27 14:25:10;;;;;;;20.23;18.10;;;10.40;98.50;;;;;;6247367;28;20527;-63
2021/04/27 14:28:14;;;;;;;23.13;20.10;;;10.40;98.30;;;;;;6247573;28;20482;-63
2021/04/27 14:31:17;;;;;;;21.47;18.73;;;10.40;98.10;;;;;;6246261;28;20470;-63
2021/04/27 14:34:20;;;;;;;21.60;19.50;;;10.40;98.60;;;;;;6247278;28;20478;-68
2021/04/27 14:37:22;;;;;;;22.20;18.93;;;10.50;98.50;;;;;;6239518;28;20474;-64
2021/04/27 14:40:26;;;;;;;21.53;19.30;;;10.50;98.30;;;;;;6237655;28;20471;-67
2021/04/27 14:43:34;;;;;;;22.40;20.07;;;10.50;98.40;;;;;;6246198;28;20486;-67
2021/04/27 14:46:36;;;;;;;23.03;20.73;;;10.60;99.00;;;;;;6247089;28;20494;-66
2021/04/27 14:49:40;;;;;;;23.37;20.87;;;10.50;98.70;;;;;;6246638;28;20485;-64
2021/04/27 14:52:42;;;;;;;22.90;20.47;;;10.50;99.10;;;;;;6247177;28;20488;-66
2021/04/27 14:55:49;;;;;;;23.23;20.77;;;10.50;99.40;;;;;;6246172;28;20580;-69
2021/04/27 14:58:51;;;;;;;24.97;22.43;;;10.50;99.40;;;;;;6247176;28;20467;-62
2021/04/27 15:01:53;;;;;;;22.73;19.67;;;10.40;99.70;;;;;;6246346;28;21000;-64
2021/04/27 15:04:58;;;;;;;20.23;18.27;;;10.40;99.90;;;;;;6249882;28;20552;-64
2021/04/27 15:08:00;;;;;;;21.37;18.57;;;10.50;99.70;;;;;;6251659;28;20601;-66
2021/04/27 15:11:03;;;;;;;23.20;20.83;;;10.50;99.30;;;;;;6251797;28;20509;-63
2021/04/27 15:14:06;;;;;;;22.20;19.20;;;10.50;99.30;;;;;;6251929;28;20474;-67
2021/04/27 15:17:09;;;;;;;21.23;19.03;;;10.50;99.20;;;;;;6251394;28;20475;-65
2021/04/27 15:20:13;;;;;;;23.17;20.03;;;10.60;99.20;;;;;;6251876;28;20608;-68
2021/04/27 15:23:15;;;;;;;22.50;19.43;;;10.70;99.30;;;;;;6252820;28;20562;-64
2021/04/27 15:26:17;;;;;;;23.13;20.83;;;10.70;99.20;;;;;;6253370;28;20528;-65
2021/04/27 15:29:20;;;;;;;22.40;20.10;;;10.80;99.00;;;;;;6253040;28;20485;-63
2021/04/27 15:32:22;;;;;;;23.33;20.77;;;10.90;98.50;;;;;;6253396;28;20479;-63
2021/04/27 15:35:25;;;;;;;22.20;19.53;;;10.90;98.50;;;;;;6252870;28;20475;-63
2021/04/27 15:38:31;;;;;;;22.60;20.17;;;11.00;98.30;;;;;;6253036;28;20555;-66
2021/04/27 15:41:34;;;;;;;27.23;21.67;;;11.00;98.40;;;;;;6252459;28;20497;-63